createdAt,value
2022-11-28T00:00:40.391Z,95654.25
2022-11-28T00:01:45.834Z,95651.53
2022-11-28T00:02:47.829Z,95651.53
2022-11-28T00:03:50.827Z,95651.53
2022-11-28T00:04:55.465Z,95657.72
2022-11-28T00:05:57.408Z,95656.94
2022-11-28T00:07:00.326Z,95654.25
2022-11-28T00:08:04.101Z,95646.91
2022-11-28T00:09:07.968Z,95656.94
2022-11-28T00:10:10.994Z,95650.78
2022-11-28T00:11:15.879Z,95651.53
2022-11-28T00:12:17.811Z,95645.38
2022-11-28T00:13:20.589Z,95650.78
2022-11-28T00:14:22.613Z,95647.31
2022-11-28T00:15:25.540Z,95645.38
2022-11-28T00:16:27.408Z,95644.59
2022-11-28T00:17:30.392Z,95645.38
2022-11-28T00:18:32.473Z,95650.78
2022-11-28T00:19:35.557Z,95647.31
2022-11-28T00:20:37.707Z,95650.78
2022-11-28T00:21:41.485Z,95650.78
2022-11-28T00:22:43.492Z,95658.09
2022-11-28T00:23:48.912Z,95648.84
2022-11-28T00:24:50.848Z,95650.00
2022-11-28T00:25:58.541Z,95641.91
2022-11-28T00:27:00.430Z,95643.03
2022-11-28T00:28:03.370Z,95639.19
2022-11-28T00:29:07.475Z,95644.59
2022-11-28T00:30:10.232Z,95636.50
2022-11-28T00:31:15.380Z,95628.41
2022-11-28T00:32:17.448Z,95629.16
2022-11-28T00:33:20.531Z,95629.94
2022-11-28T00:34:22.430Z,95629.94
2022-11-28T00:35:25.286Z,95628.00
2022-11-28T00:36:28.006Z,95613.75
2022-11-28T00:37:30.845Z,95619.13
2022-11-28T00:38:32.753Z,95608.34
2022-11-28T00:39:36.984Z,95605.22
2022-11-28T00:40:38.926Z,95600.63
2022-11-28T00:41:42.506Z,95598.28
2022-11-28T00:42:44.430Z,95596.38
2022-11-28T00:43:48.517Z,95593.66
2022-11-28T00:44:50.365Z,95596.38
2022-11-28T00:45:53.262Z,95592.91
2022-11-28T00:46:56.160Z,95592.91
2022-11-28T00:47:58.167Z,95586.72
2022-11-28T00:49:01.209Z,95585.94
2022-11-28T00:50:03.362Z,95587.50
2022-11-28T00:51:08.151Z,95587.50
2022-11-28T00:52:10.093Z,95584.03
2022-11-28T00:53:12.968Z,95587.50
2022-11-28T00:54:14.845Z,95583.63
2022-11-28T00:55:19.082Z,95582.09
2022-11-28T00:56:22.400Z,95584.78
2022-11-28T00:57:25.371Z,95588.25
2022-11-28T00:58:27.213Z,95589.03
2022-11-28T00:59:30.046Z,95595.22
2022-11-28T01:00:32.028Z,95599.84
2022-11-28T01:01:37.682Z,95606.03
2022-11-28T01:02:39.590Z,95603.34
2022-11-28T01:03:43.497Z,95610.28
2022-11-28T01:04:46.351Z,95603.34
2022-11-28T01:05:48.255Z,95608.34
2022-11-28T01:06:51.733Z,95610.63
2022-11-28T01:07:53.716Z,95610.63
2022-11-28T01:08:58.389Z,95619.13
2022-11-28T01:10:00.244Z,95613.34
2022-11-28T01:11:05.212Z,95605.22
2022-11-28T01:12:07.573Z,95610.28
2022-11-28T01:13:11.016Z,95602.53
2022-11-28T01:14:13.598Z,95606.81
2022-11-28T01:15:16.726Z,95603.34
2022-11-28T01:16:18.658Z,95594.44
2022-11-28T01:17:21.603Z,95599.84
2022-11-28T01:18:23.464Z,95597.13
2022-11-28T01:19:26.413Z,95594.44
2022-11-28T01:20:28.538Z,95588.25
2022-11-28T01:21:31.441Z,95591.72
2022-11-28T01:22:33.731Z,95582.09
2022-11-28T01:23:37.099Z,95584.78
2022-11-28T01:24:39.116Z,95576.69
2022-11-28T01:25:43.605Z,95571.28
2022-11-28T01:26:47.888Z,95575.94
2022-11-28T01:27:49.751Z,95575.94
2022-11-28T01:28:52.951Z,95571.28
2022-11-28T01:29:54.812Z,95571.28
2022-11-28T01:30:57.883Z,95570.13
2022-11-28T01:32:00.796Z,95561.63
2022-11-28T01:33:02.734Z,95569.38
2022-11-28T01:34:05.771Z,95560.50
2022-11-28T01:35:08.513Z,95559.72
2022-11-28T01:36:12.637Z,95560.50
2022-11-28T01:37:14.469Z,95557.78
2022-11-28T01:38:17.361Z,95565.13
2022-11-28T01:39:19.313Z,95565.91
2022-11-28T01:40:22.900Z,95576.69
2022-11-28T01:41:27.376Z,95596.72
2022-11-28T01:42:31.631Z,95609.09
2022-11-28T01:43:34.196Z,95608.31
2022-11-28T01:45:05.590Z,95602.13
2022-11-28T01:46:07.557Z,95597.13
2022-11-28T01:47:10.612Z,95601.34
2022-11-28T01:48:15.805Z,95605.22
2022-11-28T01:49:23.297Z,95601.75
2022-11-28T01:50:26.639Z,95597.88
2022-11-28T01:51:30.986Z,95591.31
2022-11-28T01:52:35.373Z,95587.09
2022-11-28T01:53:43.410Z,95591.31
2022-11-28T01:54:49.044Z,95588.63
2022-11-28T01:55:56.916Z,95590.56
2022-11-28T01:57:01.543Z,95585.94
2022-11-28T01:58:05.942Z,95583.22
2022-11-28T01:59:11.052Z,95587.09
2022-11-28T02:00:17.376Z,95583.22
2022-11-28T02:01:20.975Z,95594.03
2022-11-28T02:02:29.083Z,95584.78
2022-11-28T02:03:36.070Z,95583.22
2022-11-28T02:04:38.948Z,95585.94
2022-11-28T02:05:41.642Z,95582.09
2022-11-28T02:06:44.755Z,95592.91
2022-11-28T02:07:47.509Z,95589.41
2022-11-28T02:08:52.237Z,95580.53
2022-11-28T02:09:54.137Z,95580.53
2022-11-28T02:11:17.160Z,95571.28
2022-11-28T02:12:35.769Z,95575.13
2022-11-28T02:13:53.068Z,95570.53
2022-11-28T02:15:20.265Z,95571.28
2022-11-28T02:16:40.823Z,95567.03
2022-11-28T02:17:57.473Z,95569.72
2022-11-28T02:19:20.430Z,95565.91
2022-11-28T02:20:44.802Z,95563.19
2022-11-28T02:21:59.599Z,95565.91
2022-11-28T02:23:11.588Z,95557.03
2022-11-28T02:24:38.382Z,95548.13
2022-11-28T02:26:13.686Z,95550.81
2022-11-28T02:27:29.674Z,95548.94
2022-11-28T02:29:21.491Z,95550.06
2022-11-28T02:30:30.226Z,95553.53
2022-11-28T02:31:59.007Z,95550.81
2022-11-28T02:33:12.946Z,95551.63
2022-11-28T02:34:22.837Z,95554.31
2022-11-28T02:35:33.079Z,95556.22
2022-11-28T02:36:45.322Z,95557.03
2022-11-28T02:37:58.423Z,95542.72
2022-11-28T02:39:12.410Z,95547.00
2022-11-28T02:40:23.391Z,95549.69
2022-11-28T02:41:32.462Z,95544.28
2022-11-28T02:42:46.200Z,95547.34
2022-11-28T02:43:59.262Z,95541.97
2022-11-28T02:45:11.733Z,95525.75
2022-11-28T02:46:18.807Z,95519.59
2022-11-28T02:47:28.284Z,95515.34
2022-11-28T02:48:39.222Z,95516.91
2022-11-28T02:49:48.107Z,95526.94
2022-11-28T02:50:55.853Z,95523.47
2022-11-28T02:52:03.867Z,95535.78
2022-11-28T02:53:08.974Z,95533.09
2022-11-28T02:54:15.691Z,95528.84
2022-11-28T02:55:18.159Z,95530.38
2022-11-28T02:56:21.185Z,95525.00
2022-11-28T02:57:23.179Z,95520.34
2022-11-28T02:58:26.047Z,95522.28
2022-11-28T02:59:47.754Z,95529.63
2022-11-28T03:00:51.316Z,95535.78
2022-11-28T03:01:54.296Z,95528.47
2022-11-28T03:03:11.170Z,95526.94
2022-11-28T03:04:25.307Z,95525.00
2022-11-28T03:05:35.161Z,95519.59
2022-11-28T03:06:48.902Z,95519.59
2022-11-28T03:08:07.056Z,95515.34
2022-11-28T03:09:27.363Z,95502.63
2022-11-28T03:10:36.412Z,95509.97
2022-11-28T03:11:50.837Z,95507.25
2022-11-28T03:13:00.253Z,95517.25
2022-11-28T03:14:09.231Z,95512.66
2022-11-28T03:15:13.901Z,95511.50
2022-11-28T03:16:25.793Z,95499.16
2022-11-28T03:17:37.211Z,95501.84
2022-11-28T03:18:51.755Z,95511.09
2022-11-28T03:20:03.416Z,95504.56
2022-11-28T03:21:14.151Z,95501.84
2022-11-28T03:22:28.530Z,95501.84
2022-11-28T03:23:38.550Z,95496.47
2022-11-28T03:24:45.742Z,95489.50
2022-11-28T03:25:59.134Z,95489.50
2022-11-28T03:27:06.757Z,95496.47
2022-11-28T03:28:15.582Z,95490.66
2022-11-28T03:29:22.332Z,95494.88
2022-11-28T03:30:31.248Z,95494.88
2022-11-28T03:31:39.837Z,95501.06
2022-11-28T03:32:44.497Z,95503.00
2022-11-28T03:33:52.757Z,95503.00
2022-11-28T03:35:03.938Z,95494.88
2022-11-28T03:36:11.439Z,95493.34
2022-11-28T03:37:16.093Z,95498.75
2022-11-28T03:38:22.867Z,95500.28
2022-11-28T03:39:29.935Z,95497.59
2022-11-28T03:40:37.817Z,95496.47
2022-11-28T03:41:43.426Z,95500.28
2022-11-28T03:42:51.819Z,95488.72
2022-11-28T03:43:58.360Z,95492.19
2022-11-28T03:45:08.401Z,95484.88
2022-11-28T03:46:16.349Z,95485.66
2022-11-28T03:47:19.511Z,95489.50
2022-11-28T03:48:24.729Z,95485.66
2022-11-28T03:49:31.771Z,95479.47
2022-11-28T03:50:41.301Z,95468.66
2022-11-28T03:51:47.788Z,95477.56
2022-11-28T03:52:54.207Z,95469.47
2022-11-28T03:54:01.236Z,95470.22
2022-11-28T03:55:10.644Z,95468.66
2022-11-28T03:56:17.617Z,95461.34
2022-11-28T03:57:26.129Z,95468.66
2022-11-28T03:58:34.118Z,95461.72
2022-11-28T03:59:39.432Z,95447.47
2022-11-28T04:00:49.533Z,95435.50
2022-11-28T04:02:02.857Z,95429.34
2022-11-28T04:03:13.477Z,95436.66
2022-11-28T04:04:22.816Z,95448.59
2022-11-28T04:05:33.311Z,95448.59
2022-11-28T04:06:43.339Z,95454.00
2022-11-28T04:07:48.560Z,95442.84
2022-11-28T04:08:59.892Z,95437.44
2022-11-28T04:10:08.805Z,95433.16
2022-11-28T04:11:15.680Z,95437.78
2022-11-28T04:12:23.595Z,95442.38
2022-11-28T04:13:29.385Z,95445.88
2022-11-28T04:14:36.034Z,95433.16
2022-11-28T04:15:42.744Z,95437.78
2022-11-28T04:16:53.819Z,95435.84
2022-11-28T04:18:01.179Z,95435.84
2022-11-28T04:19:08.780Z,95443.97
2022-11-28T04:20:17.221Z,95434.69
2022-11-28T04:21:25.567Z,95434.69
2022-11-28T04:22:32.780Z,95431.22
2022-11-28T04:23:37.770Z,95437.03
2022-11-28T04:24:47.064Z,95436.25
2022-11-28T04:25:54.024Z,95428.16
2022-11-28T04:27:01.589Z,95432.41
2022-11-28T04:28:08.668Z,95436.25
2022-11-28T04:29:15.045Z,95438.56
2022-11-28T04:30:17.237Z,95437.78
2022-11-28T04:31:23.782Z,95436.25
2022-11-28T04:32:27.095Z,95431.63
2022-11-28T04:33:34.068Z,95428.94
2022-11-28T04:34:36.833Z,95432.41
2022-11-28T04:35:45.066Z,95437.78
2022-11-28T04:36:49.582Z,95447.81
2022-11-28T04:37:55.723Z,95452.47
2022-11-28T04:39:00.412Z,95465.97
2022-11-28T04:40:02.835Z,95479.06
2022-11-28T04:41:11.100Z,95484.47
2022-11-28T04:42:17.134Z,95480.22
2022-11-28T04:43:24.809Z,95450.91
2022-11-28T04:44:33.746Z,95433.56
2022-11-28T04:45:40.562Z,95420.44
2022-11-28T04:46:47.221Z,95435.84
2022-11-28T04:47:50.207Z,95464.78
2022-11-28T04:48:52.078Z,95481.34
2022-11-28T04:49:55.669Z,95487.91
2022-11-28T04:51:05.152Z,95471.31
2022-11-28T04:52:13.859Z,95445.44
2022-11-28T04:53:22.871Z,95457.81
2022-11-28T04:54:33.682Z,95475.53
2022-11-28T04:55:43.774Z,95477.13
2022-11-28T04:56:50.799Z,95483.28
2022-11-28T04:57:59.744Z,95479.81
2022-11-28T04:59:04.714Z,95482.13
2022-11-28T05:00:11.583Z,95496.38
2022-11-28T05:01:19.506Z,95495.63
2022-11-28T05:02:24.377Z,95492.53
2022-11-28T05:03:29.075Z,95486.38
2022-11-28T05:04:32.307Z,95487.91
2022-11-28T05:05:43.812Z,95485.22
2022-11-28T05:06:46.794Z,95492.53
2022-11-28T05:07:49.128Z,95491.38
2022-11-28T05:08:53.442Z,95496.78
2022-11-28T05:09:57.640Z,95499.47
2022-11-28T05:11:00.605Z,95494.09
2022-11-28T05:12:02.717Z,95482.47
2022-11-28T05:13:05.976Z,95488.56
2022-11-28T05:14:07.889Z,95503.63
2022-11-28T05:15:11.496Z,95503.63
2022-11-28T05:16:15.181Z,95482.75
2022-11-28T05:17:18.226Z,95469.66
2022-11-28T05:18:20.145Z,95476.19
2022-11-28T05:19:23.451Z,95492.75
2022-11-28T05:20:25.701Z,95495.44
2022-11-28T05:21:28.655Z,95486.16
2022-11-28T05:22:30.575Z,95462.63
2022-11-28T05:23:33.407Z,95467.63
2022-11-28T05:24:36.817Z,95476.47
2022-11-28T05:25:40.233Z,95494.59
2022-11-28T05:26:42.664Z,95495.75
2022-11-28T05:27:45.598Z,95483.41
2022-11-28T05:28:50.054Z,95471.03
2022-11-28T05:29:53.848Z,95471.03
2022-11-28T05:30:59.148Z,95491.09
2022-11-28T05:32:02.650Z,95494.16
2022-11-28T05:33:04.614Z,95486.84
2022-11-28T05:34:07.518Z,95475.28
2022-11-28T05:35:09.479Z,95486.44
2022-11-28T05:36:14.454Z,95493.41
2022-11-28T05:37:16.547Z,95477.97
2022-11-28T05:38:19.413Z,95460.22
2022-11-28T05:39:21.329Z,95463.31
2022-11-28T05:40:25.550Z,95475.22
2022-11-28T05:41:30.185Z,95472.53
2022-11-28T05:42:33.952Z,95461.72
2022-11-28T05:43:36.262Z,95452.09
2022-11-28T05:44:39.439Z,95450.94
2022-11-28T05:45:42.027Z,95448.63
2022-11-28T05:46:45.009Z,95462.50
2022-11-28T05:47:46.949Z,95471.00
2022-11-28T05:48:50.043Z,95457.50
2022-11-28T05:49:52.029Z,95448.63
2022-11-28T05:50:54.874Z,95433.19
2022-11-28T05:51:56.755Z,95425.47
2022-11-28T05:52:59.726Z,95433.56
2022-11-28T05:54:01.686Z,95434.38
2022-11-28T05:55:04.953Z,95446.28
2022-11-28T05:56:10.689Z,95453.25
2022-11-28T05:57:13.601Z,95446.34
2022-11-28T05:58:15.436Z,95440.94
2022-11-28T05:59:18.300Z,95438.25
2022-11-28T06:00:21.197Z,95433.25
2022-11-28T06:01:26.494Z,95430.53
2022-11-28T06:02:28.487Z,95434.53
2022-11-28T06:03:31.340Z,95436.88
2022-11-28T06:04:33.612Z,95421.81
2022-11-28T06:05:43.156Z,95429.56
2022-11-28T06:06:46.631Z,95427.22
2022-11-28T06:07:48.616Z,95413.31
2022-11-28T06:08:52.815Z,95411.00
2022-11-28T06:09:54.731Z,95405.59
2022-11-28T06:10:58.559Z,95412.50
2022-11-28T06:12:01.990Z,95409.41
2022-11-28T06:13:05.160Z,95419.41
2022-11-28T06:14:07.007Z,95421.69
2022-11-28T06:15:10.718Z,95419.38
2022-11-28T06:16:14.565Z,95415.13
2022-11-28T06:17:17.399Z,95417.06
2022-11-28T06:18:19.273Z,95417.06
2022-11-28T06:19:22.182Z,95420.91
2022-11-28T06:20:24.247Z,95424.41
2022-11-28T06:21:27.972Z,95424.41
2022-11-28T06:22:29.826Z,95420.91
2022-11-28T06:23:33.099Z,95420.91
2022-11-28T06:24:35.036Z,95414.75
2022-11-28T06:25:37.957Z,95395.84
2022-11-28T06:26:41.972Z,95398.53
2022-11-28T06:27:45.245Z,95403.94
2022-11-28T06:28:48.346Z,95409.34
2022-11-28T06:29:50.355Z,95415.50
2022-11-28T06:30:53.230Z,95403.94
2022-11-28T06:31:56.176Z,95401.25
2022-11-28T06:32:59.066Z,95402.81
2022-11-28T06:34:01.941Z,95398.50
2022-11-28T06:35:04.101Z,95402.38
2022-11-28T06:36:08.368Z,95413.16
2022-11-28T06:37:10.356Z,95430.13
2022-11-28T06:38:14.570Z,95443.63
2022-11-28T06:39:18.143Z,95432.84
2022-11-28T06:40:20.032Z,95422.44
2022-11-28T06:41:23.698Z,95411.63
2022-11-28T06:42:26.666Z,95415.09
2022-11-28T06:43:30.364Z,95411.72
2022-11-28T06:44:34.930Z,95410.97
2022-11-28T06:45:36.840Z,95405.56
2022-11-28T06:46:39.785Z,95414.44
2022-11-28T06:47:41.676Z,95421.00
2022-11-28T06:48:45.072Z,95431.41
2022-11-28T06:49:48.387Z,95433.31
2022-11-28T06:50:52.040Z,95433.72
2022-11-28T06:51:53.950Z,95428.69
2022-11-28T06:52:56.943Z,95428.69
2022-11-28T06:53:59.954Z,95416.72
2022-11-28T06:55:02.078Z,95417.06
2022-11-28T06:56:09.338Z,95425.19
2022-11-28T06:57:13.312Z,95420.94
2022-11-28T06:58:15.191Z,95426.34
2022-11-28T06:59:19.472Z,95422.88
2022-11-28T07:00:21.556Z,95419.38
2022-11-28T07:01:26.403Z,95410.13
2022-11-28T07:02:28.366Z,95417.06
2022-11-28T07:03:31.336Z,95417.06
2022-11-28T07:04:34.721Z,95424.03
2022-11-28T07:05:36.733Z,95438.69
2022-11-28T07:06:39.669Z,95438.69
2022-11-28T07:07:53.038Z,95442.53
2022-11-28T07:08:58.597Z,95448.72
2022-11-28T07:10:00.545Z,95445.22
2022-11-28T07:11:12.043Z,95451.00
2022-11-28T07:12:15.259Z,95451.00
2022-11-28T07:13:17.157Z,95440.19
2022-11-28T07:14:21.513Z,95445.59
2022-11-28T07:15:24.897Z,95443.66
2022-11-28T07:16:30.328Z,95440.59
2022-11-28T07:17:32.185Z,95457.94
2022-11-28T07:18:35.377Z,95461.81
2022-11-28T07:19:37.975Z,95448.72
2022-11-28T07:20:41.044Z,95429.41
2022-11-28T07:21:42.960Z,95430.94
2022-11-28T07:22:47.712Z,95433.63
2022-11-28T07:23:50.094Z,95424.41
2022-11-28T07:24:53.233Z,95418.22
2022-11-28T07:25:58.601Z,95434.41
2022-11-28T07:27:01.634Z,95429.81
2022-11-28T07:28:03.560Z,95440.59
2022-11-28T07:29:07.451Z,95426.31
2022-11-28T07:30:11.398Z,95423.25
2022-11-28T07:31:17.223Z,95419.00
2022-11-28T07:32:19.154Z,95421.69
2022-11-28T07:33:22.063Z,95415.50
2022-11-28T07:34:23.927Z,95412.03
2022-11-28T07:35:26.937Z,95410.91
2022-11-28T07:36:30.273Z,95402.00
2022-11-28T07:37:33.200Z,95413.97
2022-11-28T07:38:35.175Z,95414.75
2022-11-28T07:39:39.011Z,95424.78
2022-11-28T07:40:40.865Z,95420.13
2022-11-28T07:41:43.746Z,95414.75
2022-11-28T07:42:45.894Z,95419.00
2022-11-28T07:43:50.485Z,95421.69
2022-11-28T07:44:53.333Z,95420.91
2022-11-28T07:46:01.730Z,95412.03
2022-11-28T07:47:05.060Z,95416.31
2022-11-28T07:48:07.082Z,95416.31
2022-11-28T07:49:09.992Z,95416.31
2022-11-28T07:50:11.835Z,95421.69
2022-11-28T07:51:17.051Z,95427.09
2022-11-28T07:52:18.998Z,95421.69
2022-11-28T07:53:22.099Z,95421.69
2022-11-28T07:54:25.025Z,95416.31
2022-11-28T07:55:29.469Z,95431.72
2022-11-28T07:57:04.665Z,95434.03
2022-11-28T07:57:56.615Z,95421.69
2022-11-28T07:59:03.234Z,95424.41
2022-11-28T08:00:07.828Z,95430.56
2022-11-28T08:01:19.246Z,95429.81
2022-11-28T08:02:21.188Z,95428.63
2022-11-28T08:03:24.245Z,95423.25
2022-11-28T08:04:26.288Z,95415.91
2022-11-28T08:05:29.301Z,95418.59
2022-11-28T08:06:32.243Z,95413.97
2022-11-28T08:07:35.178Z,95415.13
2022-11-28T08:08:38.901Z,95416.66
2022-11-28T08:09:42.072Z,95415.13
2022-11-28T08:10:44.385Z,95409.75
2022-11-28T08:11:47.394Z,95413.97
2022-11-28T08:12:49.608Z,95413.97
2022-11-28T08:13:56.337Z,95406.66
2022-11-28T08:14:59.892Z,95403.16
2022-11-28T08:16:05.091Z,95397.78
2022-11-28T08:17:08.410Z,95397.78
2022-11-28T08:18:11.333Z,95400.47
2022-11-28T08:19:14.886Z,95404.72
2022-11-28T08:20:16.817Z,95411.69
2022-11-28T08:21:23.366Z,95419.38
2022-11-28T08:22:26.200Z,95423.63
2022-11-28T08:23:28.129Z,95407.44
2022-11-28T08:24:31.045Z,95408.97
2022-11-28T08:25:33.008Z,95415.53
2022-11-28T08:26:36.679Z,95416.31
2022-11-28T08:27:38.493Z,95406.28
2022-11-28T08:28:41.823Z,95406.28
2022-11-28T08:29:47.989Z,95405.50
2022-11-28T08:30:52.316Z,95396.63
2022-11-28T08:31:55.142Z,95400.88
2022-11-28T08:32:58.619Z,95410.91
2022-11-28T08:34:04.171Z,95422.47
2022-11-28T08:35:08.280Z,95410.13
2022-11-28T08:36:14.385Z,95417.06
2022-11-28T08:37:17.417Z,95411.69
2022-11-28T08:38:19.663Z,95415.94
2022-11-28T08:39:24.305Z,95415.94
2022-11-28T08:40:30.320Z,95407.06
2022-11-28T08:41:33.270Z,95407.84
2022-11-28T08:42:35.332Z,95408.59
2022-11-28T08:43:39.520Z,95406.66
2022-11-28T08:44:42.395Z,95410.13
2022-11-28T08:45:45.143Z,95400.13
2022-11-28T08:46:48.171Z,95402.44
2022-11-28T08:47:51.196Z,95400.91
2022-11-28T08:48:55.469Z,95397.03
2022-11-28T08:49:58.388Z,95407.06
2022-11-28T08:51:00.263Z,95403.22
2022-11-28T08:52:04.156Z,95403.22
2022-11-28T08:53:08.600Z,95408.63
2022-11-28T08:54:11.466Z,95408.63
2022-11-28T08:55:14.337Z,95405.94
2022-11-28T08:56:17.621Z,95409.41
2022-11-28T08:57:20.481Z,95409.41
2022-11-28T08:58:23.216Z,95405.53
2022-11-28T08:59:26.227Z,95410.94
2022-11-28T09:00:29.636Z,95414.41
2022-11-28T09:01:32.563Z,95418.28
2022-11-28T09:02:35.636Z,95419.81
2022-11-28T09:03:37.747Z,95412.50
2022-11-28T09:04:41.946Z,95418.66
2022-11-28T09:05:46.572Z,95428.31
2022-11-28T09:06:49.544Z,95426.00
2022-11-28T09:07:55.496Z,95424.84
2022-11-28T09:08:59.123Z,95430.25
2022-11-28T09:10:01.076Z,95425.59
2022-11-28T09:11:04.044Z,95428.31
2022-11-28T09:12:07.485Z,95422.91
2022-11-28T09:13:09.409Z,95419.06
2022-11-28T09:14:12.745Z,95423.69
2022-11-28T09:15:14.651Z,95427.16
2022-11-28T09:16:17.683Z,95427.16
2022-11-28T09:17:20.691Z,95429.88
2022-11-28T09:18:23.669Z,95426.41
2022-11-28T09:19:26.575Z,95426.00
2022-11-28T09:20:29.849Z,95426.00
2022-11-28T09:21:32.686Z,95421.78
2022-11-28T09:22:35.777Z,95434.09
2022-11-28T09:23:40.885Z,95438.75
2022-11-28T09:24:43.762Z,95438.38
2022-11-28T09:25:45.769Z,95430.28
2022-11-28T09:26:48.586Z,95430.28
2022-11-28T09:27:51.575Z,95427.56
2022-11-28T09:28:54.732Z,95436.44
2022-11-28T09:29:57.684Z,95424.06
2022-11-28T09:31:01.764Z,95431.81
2022-11-28T09:32:04.952Z,95429.09
2022-11-28T09:33:06.963Z,95431.44
2022-11-28T09:34:09.815Z,95427.97
2022-11-28T09:35:12.760Z,95432.22
2022-11-28T09:36:19.825Z,95429.50
2022-11-28T09:37:21.734Z,95429.50
2022-11-28T09:38:24.624Z,95424.88
2022-11-28T09:39:32.717Z,95422.16
2022-11-28T09:40:46.684Z,95427.19
2022-11-28T09:42:03.654Z,95426.44
2022-11-28T09:43:15.152Z,95433.38
2022-11-28T09:44:24.028Z,95433.38
2022-11-28T09:45:27.107Z,95428.75
2022-11-28T09:46:33.025Z,95428.75
2022-11-28T09:47:37.866Z,95425.28
2022-11-28T09:48:45.983Z,95431.44
2022-11-28T09:49:53.789Z,95420.25
2022-11-28T09:51:02.420Z,95415.63
2022-11-28T09:52:17.633Z,95425.28
2022-11-28T09:53:26.837Z,95422.59
2022-11-28T09:54:39.614Z,95430.69
2022-11-28T09:55:47.388Z,95421.81
2022-11-28T09:56:51.531Z,95418.72
2022-11-28T09:57:55.408Z,95424.13
2022-11-28T09:59:03.207Z,95424.13
2022-11-28T10:00:07.795Z,95420.28
2022-11-28T10:01:18.656Z,95425.69
2022-11-28T10:02:28.960Z,95424.53
2022-11-28T10:03:40.466Z,95414.50
2022-11-28T10:04:52.301Z,95415.25
2022-11-28T10:06:03.916Z,95414.13
2022-11-28T10:07:16.960Z,95417.22
2022-11-28T10:08:28.745Z,95415.66
2022-11-28T10:09:40.995Z,95406.41
2022-11-28T10:10:53.776Z,95421.47
2022-11-28T10:12:06.952Z,95416.06
2022-11-28T10:13:18.353Z,95420.31
2022-11-28T10:14:46.516Z,95424.94
2022-11-28T10:15:58.056Z,95419.91
2022-11-28T10:17:12.875Z,95412.97
2022-11-28T10:18:26.402Z,95418.00
2022-11-28T10:19:53.859Z,95421.09
2022-11-28T10:21:02.044Z,95424.59
2022-11-28T10:22:08.297Z,95421.88
2022-11-28T10:23:20.574Z,95428.81
2022-11-28T10:24:31.383Z,95425.75
2022-11-28T10:25:37.954Z,95417.66
2022-11-28T10:26:44.735Z,95431.16
2022-11-28T10:27:49.838Z,95419.56
2022-11-28T10:28:56.078Z,95418.81
2022-11-28T10:30:01.643Z,95421.91
2022-11-28T10:31:09.181Z,95416.50
2022-11-28T10:32:18.027Z,95422.66
2022-11-28T10:33:26.328Z,95419.59
2022-11-28T10:34:32.184Z,95414.97
2022-11-28T10:35:43.547Z,95420.38
2022-11-28T10:36:53.461Z,95406.84
2022-11-28T10:37:56.294Z,95410.31
2022-11-28T10:39:03.233Z,95413.78
2022-11-28T10:40:28.843Z,95407.25
2022-11-28T10:41:37.433Z,95401.09
2022-11-28T10:42:47.354Z,95404.94
2022-11-28T10:43:57.489Z,95403.78
2022-11-28T10:45:12.925Z,95411.50
2022-11-28T10:46:36.789Z,95413.44
2022-11-28T10:47:52.745Z,95403.00
2022-11-28T10:49:03.637Z,95406.09
2022-11-28T10:50:14.335Z,95399.56
2022-11-28T10:51:27.549Z,95406.50
2022-11-28T10:52:39.989Z,95410.75
2022-11-28T10:53:52.081Z,95404.97
2022-11-28T10:55:14.731Z,95405.75
2022-11-28T10:56:28.555Z,95403.41
2022-11-28T10:57:39.587Z,95398.00
2022-11-28T10:58:54.998Z,95400.34
2022-11-28T11:00:06.901Z,95404.97
2022-11-28T11:01:09.691Z,95391.47
2022-11-28T11:02:22.548Z,95399.19
2022-11-28T11:03:28.954Z,95399.19
2022-11-28T11:04:34.803Z,95402.28
2022-11-28T11:05:38.634Z,95399.56
2022-11-28T11:06:47.645Z,95394.94
2022-11-28T11:07:59.007Z,95403.47
2022-11-28T11:09:01.025Z,95398.06
2022-11-28T11:10:16.865Z,95392.25
2022-11-28T11:11:27.640Z,95402.69
2022-11-28T11:12:33.285Z,95400.75
2022-11-28T11:13:56.335Z,95404.22
2022-11-28T11:14:58.282Z,95392.25
2022-11-28T11:16:04.423Z,95402.69
2022-11-28T11:17:08.020Z,95393.78
2022-11-28T11:18:23.714Z,95396.13
2022-11-28T11:19:29.870Z,95411.59
2022-11-28T11:20:37.021Z,95409.66
2022-11-28T11:21:39.915Z,95400.38
2022-11-28T11:22:55.828Z,95394.97
2022-11-28T11:24:14.210Z,95390.34
2022-11-28T11:25:20.196Z,95398.81
2022-11-28T11:26:26.101Z,95395.75
2022-11-28T11:27:27.996Z,95395.75
2022-11-28T11:28:41.430Z,95387.25
2022-11-28T11:29:45.645Z,95398.06
2022-11-28T11:30:50.013Z,95387.25
2022-11-28T11:31:54.059Z,95389.97
2022-11-28T11:32:58.601Z,95388.78
2022-11-28T11:34:06.579Z,95384.94
2022-11-28T11:35:17.771Z,95381.06
2022-11-28T11:36:27.527Z,95390.34
2022-11-28T11:37:36.383Z,95391.13
2022-11-28T11:38:40.203Z,95390.75
2022-11-28T11:39:48.018Z,95386.88
2022-11-28T11:40:53.064Z,95386.09
2022-11-28T11:42:11.786Z,95390.34
2022-11-28T11:43:27.579Z,95382.22
2022-11-28T11:44:34.231Z,95377.22
2022-11-28T11:45:38.044Z,95378.75
2022-11-28T11:46:52.177Z,95376.06
2022-11-28T11:47:55.166Z,95386.88
2022-11-28T11:48:57.131Z,95376.81
2022-11-28T11:50:06.066Z,95374.88
2022-11-28T11:51:21.716Z,95381.09
2022-11-28T11:52:26.888Z,95380.69
2022-11-28T11:53:29.778Z,95380.69
2022-11-28T11:54:31.784Z,95377.97
2022-11-28T11:55:41.568Z,95377.97
2022-11-28T11:57:05.883Z,95386.88
2022-11-28T11:58:17.447Z,95377.97
2022-11-28T11:59:25.588Z,95372.56
2022-11-28T12:00:34.044Z,95377.97
2022-11-28T12:01:38.793Z,95383.00
2022-11-28T12:02:45.397Z,95379.13
2022-11-28T12:03:56.078Z,95382.63
2022-11-28T12:05:04.952Z,95385.34
2022-11-28T12:06:15.256Z,95384.94
2022-11-28T12:07:24.955Z,95379.53
2022-11-28T12:08:35.592Z,95374.91
2022-11-28T12:09:44.568Z,95374.91
2022-11-28T12:10:52.670Z,95376.44
2022-11-28T12:12:00.948Z,95378.38
2022-11-28T12:13:04.316Z,95380.69
2022-11-28T12:14:26.645Z,95375.28
2022-11-28T12:15:40.882Z,95381.06
2022-11-28T12:16:50.755Z,95376.47
2022-11-28T12:18:06.983Z,95373.34
2022-11-28T12:19:19.456Z,95373.34
2022-11-28T12:20:47.657Z,95376.44
2022-11-28T12:22:07.149Z,95376.44
2022-11-28T12:23:22.451Z,95374.91
2022-11-28T12:24:34.626Z,95376.06
2022-11-28T12:25:45.888Z,95371.81
2022-11-28T12:26:53.583Z,95374.91
2022-11-28T12:28:12.145Z,95375.66
2022-11-28T12:29:37.482Z,95375.66
2022-11-28T12:30:51.555Z,95371.81
2022-11-28T12:32:09.847Z,95371.81
2022-11-28T12:33:28.579Z,95373.34
2022-11-28T12:34:41.686Z,95367.94
2022-11-28T12:35:49.788Z,95368.75
2022-11-28T12:37:17.512Z,95371.44
2022-11-28T12:38:31.280Z,95369.50
2022-11-28T12:39:46.360Z,95374.91
2022-11-28T12:41:09.367Z,95369.50
2022-11-28T12:42:23.975Z,95378.00
2022-11-28T12:43:42.672Z,95365.63
2022-11-28T12:45:04.247Z,95372.59
2022-11-28T12:46:18.390Z,95361.78
2022-11-28T12:47:34.922Z,95366.03
2022-11-28T12:48:52.835Z,95367.97
2022-11-28T12:50:04.371Z,95367.59
2022-11-28T12:51:20.470Z,95370.28
2022-11-28T12:52:36.062Z,95359.47
2022-11-28T12:54:08.585Z,95355.59
2022-11-28T12:55:24.395Z,95363.31
2022-11-28T12:56:42.119Z,95365.25
2022-11-28T12:57:53.018Z,95366.03
2022-11-28T12:59:02.912Z,95368.75
2022-11-28T13:00:12.939Z,95367.94
2022-11-28T13:01:35.201Z,95363.31
2022-11-28T13:02:53.664Z,95369.50
2022-11-28T13:04:06.308Z,95364.09